KPWC Airport (Pine River Rgnl) Information

FAA: PWC - ICAO: KPWC

KPWC Airport Location

State Minnesota
County Cass
City Pine River
KPWC Airport is 1 miles east of Pine River, MN.
Latitude 46-43-29.2350N
Longitude 094-22-54.1200W
Elevation 1,295ft

KPWC Airport METARs

METAR KPWC 262255Z AUTO 17005KT 10SM CLR M02/M09 A2986 RMK AO2
Altimeter 29.86"
Temperature -2.0°C (28.4°F)
Wind 170° at 5KT
Clouds Skies are clear.
Visibility 10.0mi
Time observed: 2021-11-26T22:55:00Z

KPWC Airport Details

Status Operational
Activation February 1982
Ownership Public
Usage Public
Chart TWIN CITIES
ATC on-site No
Beacon schedule N/A
Beacon color N/A

KPWC Airport Contacts

Owner CITY OF PINE RIVER
Owner address BOX 87, PINE RIVER, MN 56474
Owner phone 218-587-2440
Manager DAVID ROGERS
Manager address 450 EASTVOLD AVE, ORTONVILLE, MN 56278
Manager phone 320-839-4127

KPWC Airport (Pine River Rgnl) Radio Frequencies

KPWC (Airport) Radio Frequencies

UNICOM N/A
Common traffic advisory frequency (CTAF) 122.9